Ana Sayfa
METAR-TAF:

METAR-TAF

Havaalanları :

Cheboygan County Airport

Cheboygan, Michigan, Amerika Birleşik Devletleri

Enlem: 45-39-13N, Boylam: 084-31-09W, yükseklik: 195 m

Güncel hava durumu gözlemi

Rapor saat 04:15 UTC de 19 dakika önce yapıldı.
Rüzgar batıdan 8 kt
Sıcaklık 4°C
Nem 75%
Basınç 1007 hPa
Görüş mesafesi: 16.1 km
Açık gökyüzü

METAR: KSLH 240415Z AUTO 26008KT 10SM CLR 04/00 A2974 RMK AO2 T00351005

Saat: 23:34 (04:34 UTC)


TAF: eksik

4.000'den fazla havaalanı için hava durumu gözlemleri ve tahminleri (METAR ve TAF raporları).

Kullanılabilir istasyonlar harita üzerinde sarı ve kırmızı noktalarla gösterilir.

İstasyonun adını görmek için fareyi noktanın üzerinde gezdirin.

Sonrasında hava gözlem ve tahminlerini görmek için tıklayın.

Haritayı değiştirmek için: yaklaştırmak için siyah artı işaretli yeşil düğmeye ve uzaklaştırmak için de eksi işaretli düğmeye hızla tıklayın; bitişik haritalar için yeşil okları kullanın.


METAR-TAF: